createdAt,value
2016-08-30T00:00:45.304Z,1014.24
2016-08-30T00:01:45.284Z,1014.22
2016-08-30T00:02:45.578Z,1014.25
2016-08-30T00:03:45.241Z,1014.24
2016-08-30T00:04:45.219Z,1014.24
2016-08-30T00:05:45.196Z,1014.23
2016-08-30T00:06:45.174Z,1014.18
2016-08-30T00:07:45.153Z,1014.2
2016-08-30T00:08:45.131Z,1014.21
2016-08-30T00:09:45.111Z,1014.17
2016-08-30T00:10:45.088Z,1014.2
2016-08-30T00:11:45.069Z,1014.18
2016-08-30T00:12:45.046Z,1014.13
2016-08-30T00:13:45.046Z,1014.14
2016-08-30T00:14:45.003Z,1014.14
2016-08-30T00:15:44.980Z,1014.1
2016-08-30T00:16:44.959Z,1014.11
2016-08-30T00:17:44.937Z,1014.12
2016-08-30T00:18:44.917Z,1014.17
2016-08-30T00:19:44.894Z,1014.18
2016-08-30T00:20:44.871Z,1014.18
2016-08-30T00:21:44.850Z,1014.16
2016-08-30T00:22:44.829Z,1014.14
2016-08-30T00:23:44.807Z,1014.13
2016-08-30T00:24:44.786Z,1014.17
2016-08-30T00:25:44.764Z,1014.14
2016-08-30T00:26:44.743Z,1014.18
2016-08-30T00:27:44.721Z,1014.18
2016-08-30T00:28:44.698Z,1014.25
2016-08-30T00:29:44.678Z,1014.23
2016-08-30T00:30:44.654Z,1014.22
2016-08-30T00:31:44.634Z,1014.23
2016-08-30T00:32:44.612Z,1014.23
2016-08-30T00:33:44.590Z,1014.25
2016-08-30T00:34:44.567Z,1014.25
2016-08-30T00:35:44.546Z,1014.24
2016-08-30T00:36:44.524Z,1014.25
2016-08-30T00:37:44.506Z,1014.26
2016-08-30T00:38:44.481Z,1014.23
2016-08-30T00:39:44.459Z,1014.22
2016-08-30T00:40:44.437Z,1014.27
2016-08-30T00:41:44.414Z,1014.25
2016-08-30T00:42:44.392Z,1014.29
2016-08-30T00:43:44.370Z,1014.28
2016-08-30T00:44:44.350Z,1014.32
2016-08-30T00:45:44.325Z,1014.3
2016-08-30T00:46:44.304Z,1014.3
2016-08-30T00:47:44.283Z,1014.28
2016-08-30T00:48:44.261Z,1014.32
2016-08-30T00:49:44.238Z,1014.31
2016-08-30T00:50:44.216Z,1014.32
2016-08-30T00:51:44.194Z,1014.33
2016-08-30T00:52:44.172Z,1014.33
2016-08-30T00:53:44.149Z,1014.31
2016-08-30T00:54:44.127Z,1014.33
2016-08-30T00:55:44.106Z,1014.35
2016-08-30T00:56:44.083Z,1014.34
2016-08-30T00:57:44.061Z,1014.37
2016-08-30T00:58:44.039Z,1014.34
2016-08-30T00:59:44.017Z,1014.36
2016-08-30T01:00:43.994Z,1014.37
2016-08-30T01:01:43.972Z,1014.38
2016-08-30T01:02:43.950Z,1014.46
2016-08-30T01:03:43.927Z,1014.46
2016-08-30T01:04:43.905Z,1014.5
2016-08-30T01:05:43.884Z,1014.51
2016-08-30T01:06:43.862Z,1014.53
2016-08-30T01:07:43.839Z,1014.48
2016-08-30T01:08:43.816Z,1014.53
2016-08-30T01:09:43.794Z,1014.54
2016-08-30T01:10:43.778Z,1014.55
2016-08-30T01:11:43.749Z,1014.63
2016-08-30T01:12:43.727Z,1014.58
2016-08-30T01:13:43.705Z,1014.6
2016-08-30T01:14:43.682Z,1014.62
2016-08-30T01:15:43.660Z,1014.58
2016-08-30T01:16:43.639Z,1014.6
2016-08-30T01:17:43.617Z,1014.56
2016-08-30T01:18:43.593Z,1014.59
2016-08-30T01:19:43.574Z,1014.59
2016-08-30T01:20:43.549Z,1014.59
2016-08-30T01:21:43.527Z,1014.6
2016-08-30T01:22:43.503Z,1014.56
2016-08-30T01:23:43.481Z,1014.54
2016-08-30T01:24:43.460Z,1014.59
2016-08-30T01:25:43.437Z,1014.55
2016-08-30T01:26:43.414Z,1014.53
2016-08-30T01:27:43.392Z,1014.57
2016-08-30T01:28:43.370Z,1014.57
2016-08-30T01:29:43.347Z,1014.58
2016-08-30T01:30:43.324Z,1014.64
2016-08-30T01:31:43.307Z,1014.63
2016-08-30T01:32:43.285Z,1014.64
2016-08-30T01:33:43.257Z,1014.66
2016-08-30T01:34:43.235Z,1014.65
2016-08-30T01:35:43.214Z,1014.63
2016-08-30T01:36:43.190Z,1014.66
2016-08-30T01:37:43.168Z,1014.62
2016-08-30T01:38:43.145Z,1014.67
2016-08-30T01:39:43.124Z,1014.63
2016-08-30T01:40:43.100Z,1014.61
2016-08-30T01:41:43.078Z,1014.62
2016-08-30T01:42:43.056Z,1014.63
2016-08-30T01:43:43.033Z,1014.59
2016-08-30T01:44:43.011Z,1014.64
2016-08-30T01:45:42.988Z,1014.59
2016-08-30T01:46:42.966Z,1014.6
2016-08-30T01:47:42.943Z,1014.6
2016-08-30T01:48:42.920Z,1014.6
2016-08-30T01:49:42.898Z,1014.62
2016-08-30T01:50:42.876Z,1014.64
2016-08-30T01:51:42.853Z,1014.56
2016-08-30T01:52:42.830Z,1014.61
2016-08-30T01:53:42.807Z,1014.66
2016-08-30T01:54:42.785Z,1014.69
2016-08-30T01:55:42.762Z,1014.7
2016-08-30T01:56:42.741Z,1014.71
2016-08-30T01:57:42.717Z,1014.7
2016-08-30T01:58:42.695Z,1014.68
2016-08-30T01:59:42.672Z,1014.67
2016-08-30T02:00:42.649Z,1014.67
2016-08-30T02:01:42.628Z,1014.67
2016-08-30T02:02:42.605Z,1014.72
2016-08-30T02:03:42.581Z,1014.73
2016-08-30T02:04:42.559Z,1014.73
2016-08-30T02:05:42.535Z,1014.72
2016-08-30T02:06:42.514Z,1014.7
2016-08-30T02:07:42.491Z,1014.7
2016-08-30T02:08:42.469Z,1014.73
2016-08-30T02:09:42.446Z,1014.71
2016-08-30T02:10:42.423Z,1014.71
2016-08-30T02:11:42.401Z,1014.68
2016-08-30T02:12:42.379Z,1014.68
2016-08-30T02:13:42.355Z,1014.7
2016-08-30T02:14:42.333Z,1014.73
2016-08-30T02:15:42.311Z,1014.76
2016-08-30T02:16:42.287Z,1014.73
2016-08-30T02:17:42.265Z,1014.78
2016-08-30T02:18:42.243Z,1014.8
2016-08-30T02:19:42.220Z,1014.8
2016-08-30T02:20:42.196Z,1014.8
2016-08-30T02:21:42.174Z,1014.77
2016-08-30T02:22:42.152Z,1014.78
2016-08-30T02:23:42.130Z,1014.78
2016-08-30T02:24:42.107Z,1014.78
2016-08-30T02:25:42.083Z,1014.76
2016-08-30T02:26:42.061Z,1014.76
2016-08-30T02:27:42.038Z,1014.76
2016-08-30T02:28:42.015Z,1014.79
2016-08-30T02:29:41.993Z,1014.78
2016-08-30T02:30:41.970Z,1014.78
2016-08-30T02:31:41.947Z,1014.75
2016-08-30T02:32:41.925Z,1014.74
2016-08-30T02:33:41.902Z,1014.72
2016-08-30T02:34:41.880Z,1014.78
2016-08-30T02:35:41.856Z,1014.79
2016-08-30T02:36:41.834Z,1014.73
2016-08-30T02:37:41.812Z,1014.74
2016-08-30T02:38:41.787Z,1014.77
2016-08-30T02:39:41.765Z,1014.79
2016-08-30T02:40:41.744Z,1014.77
2016-08-30T02:41:41.722Z,1014.79
2016-08-30T02:42:41.696Z,1014.8
2016-08-30T02:43:41.675Z,1014.83
2016-08-30T02:44:41.657Z,1014.79
2016-08-30T02:45:41.628Z,1014.79
2016-08-30T02:46:41.607Z,1014.79
2016-08-30T02:47:41.585Z,1014.78
2016-08-30T02:48:41.561Z,1014.79
2016-08-30T02:49:41.537Z,1014.81
2016-08-30T02:50:41.514Z,1014.77
2016-08-30T02:51:41.492Z,1014.79
2016-08-30T02:52:41.469Z,1014.77
2016-08-30T02:53:41.446Z,1014.77
2016-08-30T02:54:41.424Z,1014.76
2016-08-30T02:55:41.400Z,1014.75
2016-08-30T02:56:41.378Z,1014.75
2016-08-30T02:57:41.355Z,1014.72
2016-08-30T02:58:41.332Z,1014.72
2016-08-30T02:59:41.310Z,1014.74
2016-08-30T03:00:41.285Z,1014.73
2016-08-30T03:01:41.263Z,1014.77
2016-08-30T03:02:41.241Z,1014.72
2016-08-30T03:03:41.218Z,1014.75
2016-08-30T03:04:41.194Z,1014.71
2016-08-30T03:05:41.172Z,1014.69
2016-08-30T03:06:41.150Z,1014.7
2016-08-30T03:07:41.126Z,1014.69
2016-08-30T03:08:41.103Z,1014.71
2016-08-30T03:09:41.080Z,1014.68
2016-08-30T03:10:41.059Z,1014.73
2016-08-30T03:11:41.034Z,1014.72
2016-08-30T03:12:41.012Z,1014.71
2016-08-30T03:13:40.989Z,1014.71
2016-08-30T03:14:40.967Z,1014.73
2016-08-30T03:15:40.943Z,1014.72
2016-08-30T03:16:40.921Z,1014.73
2016-08-30T03:17:40.898Z,1014.72
2016-08-30T03:18:40.875Z,1014.74
2016-08-30T03:19:40.853Z,1014.71
2016-08-30T03:20:40.830Z,1014.69
2016-08-30T03:21:40.807Z,1014.69
2016-08-30T03:22:40.783Z,1014.71
2016-08-30T03:23:40.760Z,1014.68
2016-08-30T03:24:40.738Z,1014.67
2016-08-30T03:25:40.715Z,1014.69
2016-08-30T03:26:40.691Z,1014.68
2016-08-30T03:27:40.669Z,1014.66
2016-08-30T03:28:40.646Z,1014.66
2016-08-30T03:29:40.622Z,1014.66
2016-08-30T03:30:40.599Z,1014.63
2016-08-30T03:31:40.576Z,1014.63
2016-08-30T03:32:40.554Z,1014.61
2016-08-30T03:33:40.530Z,1014.58
2016-08-30T03:34:40.507Z,1014.57
2016-08-30T03:35:41.137Z,1014.6
2016-08-30T03:36:40.461Z,1014.58
2016-08-30T03:37:40.437Z,1014.58
2016-08-30T03:38:40.424Z,1014.6
2016-08-30T03:39:40.392Z,1014.59
2016-08-30T03:40:40.368Z,1014.63
2016-08-30T03:41:40.346Z,1014.65
2016-08-30T03:42:40.323Z,1014.62
2016-08-30T03:43:40.300Z,1014.62
2016-08-30T03:44:40.276Z,1014.65
2016-08-30T03:45:40.252Z,1014.67
2016-08-30T03:46:40.230Z,1014.66
2016-08-30T03:47:40.208Z,1014.72
2016-08-30T03:48:40.183Z,1014.72
2016-08-30T03:49:40.161Z,1014.7
2016-08-30T03:50:40.140Z,1014.68
2016-08-30T03:51:40.114Z,1014.69
2016-08-30T03:52:40.091Z,1014.72
2016-08-30T03:53:40.068Z,1014.71
2016-08-30T03:54:40.045Z,1014.72
2016-08-30T03:55:40.021Z,1014.72
2016-08-30T03:56:39.998Z,1014.74
2016-08-30T03:57:39.975Z,1014.72
2016-08-30T03:58:39.952Z,1014.76
2016-08-30T03:59:39.929Z,1014.76
2016-08-30T04:00:39.906Z,1014.74
2016-08-30T04:01:39.882Z,1014.73
2016-08-30T04:02:39.858Z,1014.74
2016-08-30T04:03:39.836Z,1014.76
2016-08-30T04:04:39.812Z,1014.76
2016-08-30T04:05:39.794Z,1014.72
2016-08-30T04:06:39.767Z,1014.73
2016-08-30T04:07:39.742Z,1014.75
2016-08-30T04:08:39.719Z,1014.74
2016-08-30T04:09:39.697Z,1014.73
2016-08-30T04:10:39.673Z,1014.73
2016-08-30T04:11:39.650Z,1014.71
2016-08-30T04:12:39.626Z,1014.7
2016-08-30T04:13:39.606Z,1014.72
2016-08-30T04:14:39.580Z,1014.7
2016-08-30T04:15:39.557Z,1014.7
2016-08-30T04:16:39.534Z,1014.73
2016-08-30T04:17:39.510Z,1014.72
2016-08-30T04:18:39.487Z,1014.71
2016-08-30T04:19:39.464Z,1014.68
2016-08-30T04:20:39.441Z,1014.68
2016-08-30T04:21:39.417Z,1014.7
2016-08-30T04:22:39.394Z,1014.72
2016-08-30T04:23:39.370Z,1014.73
2016-08-30T04:24:39.346Z,1014.71
2016-08-30T04:25:39.323Z,1014.69
2016-08-30T04:26:39.301Z,1014.71
2016-08-30T04:27:39.279Z,1014.76
2016-08-30T04:28:39.254Z,1014.75
2016-08-30T04:29:39.230Z,1014.75
2016-08-30T04:30:39.208Z,1014.77
2016-08-30T04:31:39.184Z,1014.74
2016-08-30T04:32:39.159Z,1014.77
2016-08-30T04:33:39.138Z,1014.76
2016-08-30T04:34:39.114Z,1014.79
2016-08-30T04:35:39.092Z,1014.78
2016-08-30T04:36:39.067Z,1014.78
2016-08-30T04:37:39.044Z,1014.82
2016-08-30T04:38:39.021Z,1014.77
2016-08-30T04:39:38.997Z,1014.78
2016-08-30T04:40:38.974Z,1014.83
2016-08-30T04:41:38.951Z,1014.83
2016-08-30T04:42:38.928Z,1014.85
2016-08-30T04:43:38.903Z,1014.88
2016-08-30T04:44:38.880Z,1014.85
2016-08-30T04:45:38.857Z,1014.92
2016-08-30T04:46:38.833Z,1014.91
2016-08-30T04:47:38.810Z,1014.94
2016-08-30T04:48:38.787Z,1014.99
2016-08-30T04:49:38.764Z,1014.97
2016-08-30T04:50:38.739Z,1015
2016-08-30T04:51:38.716Z,1015
2016-08-30T04:52:38.693Z,1014.96
2016-08-30T04:53:38.671Z,1014.98
2016-08-30T04:54:38.646Z,1014.97
2016-08-30T04:55:38.624Z,1014.95
2016-08-30T04:56:38.601Z,1014.99
2016-08-30T04:57:38.577Z,1014.99
2016-08-30T04:58:38.553Z,1014.96
2016-08-30T04:59:38.530Z,1014.97
2016-08-30T05:00:38.507Z,1014.98
2016-08-30T05:01:38.484Z,1015.01
2016-08-30T05:02:38.460Z,1015
2016-08-30T05:03:38.437Z,1015.04
2016-08-30T05:04:38.412Z,1015.05
2016-08-30T05:05:38.390Z,1015.05
2016-08-30T05:06:38.367Z,1015.06
2016-08-30T05:07:38.343Z,1015.02
2016-08-30T05:08:38.319Z,1015.06
2016-08-30T05:09:38.296Z,1015.03
2016-08-30T05:10:38.273Z,1015.05
2016-08-30T05:11:38.250Z,1015.05
2016-08-30T05:12:38.229Z,1015.08
2016-08-30T05:13:38.209Z,1015.06
2016-08-30T05:14:38.181Z,1015.1
2016-08-30T05:15:38.155Z,1015.08
2016-08-30T05:16:38.133Z,1015.11
2016-08-30T05:17:38.110Z,1015.14
2016-08-30T05:18:38.086Z,1015.16
2016-08-30T05:19:38.063Z,1015.17
2016-08-30T05:20:38.046Z,1015.17
2016-08-30T05:21:38.017Z,1015.15
2016-08-30T05:22:37.994Z,1015.16
2016-08-30T05:23:37.969Z,1015.15
2016-08-30T05:24:37.947Z,1015.23
2016-08-30T05:25:37.925Z,1015.19
2016-08-30T05:26:37.900Z,1015.22
2016-08-30T05:27:37.877Z,1015.22
2016-08-30T05:28:37.855Z,1015.2
2016-08-30T05:29:37.831Z,1015.25
2016-08-30T05:30:37.808Z,1015.2
2016-08-30T05:31:37.785Z,1015.23
2016-08-30T05:32:37.763Z,1015.28
2016-08-30T05:33:37.739Z,1015.28
2016-08-30T05:34:37.715Z,1015.29
2016-08-30T05:35:37.692Z,1015.32
2016-08-30T05:36:37.670Z,1015.34
2016-08-30T05:37:37.646Z,1015.35
2016-08-30T05:38:37.623Z,1015.36
2016-08-30T05:39:37.780Z,1015.36
2016-08-30T05:40:39.808Z,1015.36
2016-08-30T05:41:37.805Z,1015.35
2016-08-30T05:42:37.535Z,1015.36
2016-08-30T05:43:37.508Z,1015.35
2016-08-30T05:44:37.489Z,1015.37
2016-08-30T05:45:39.667Z,1015.36
2016-08-30T05:46:37.439Z,1015.4
2016-08-30T05:47:37.416Z,1015.41
2016-08-30T05:48:37.392Z,1015.4
2016-08-30T05:49:37.370Z,1015.45
2016-08-30T05:50:37.347Z,1015.46
2016-08-30T05:51:37.330Z,1015.45
2016-08-30T05:52:37.301Z,1015.46
2016-08-30T05:53:37.278Z,1015.47
2016-08-30T05:57:07.761Z,1015.51
2016-08-30T05:58:07.737Z,1015.51
2016-08-30T05:59:07.901Z,1015.54
2016-08-30T06:00:07.935Z,1015.55
2016-08-30T06:01:16.279Z,1015.56
2016-08-30T06:02:07.656Z,1015.55
2016-08-30T06:03:07.629Z,1015.57
2016-08-30T06:04:07.602Z,1015.56
2016-08-30T06:05:08.550Z,1015.57
2016-08-30T06:06:07.557Z,1015.56
2016-08-30T06:08:09.115Z,1015.59
2016-08-30T06:09:07.650Z,1015.61
2016-08-30T06:10:10.544Z,1015.59
2016-08-30T06:11:07.445Z,1015.6
2016-08-30T06:12:07.421Z,1015.59
2016-08-30T06:13:07.399Z,1015.58
2016-08-30T06:14:07.376Z,1015.6
2016-08-30T06:15:08.261Z,1015.58
2016-08-30T06:16:07.334Z,1015.57
2016-08-30T06:17:07.308Z,1015.58
2016-08-30T06:18:07.286Z,1015.56
2016-08-30T06:19:07.264Z,1015.59
2016-08-30T06:20:12.051Z,1015.61
2016-08-30T06:21:07.269Z,1015.61
2016-08-30T06:22:07.197Z,1015.61
2016-08-30T06:23:07.181Z,1015.59
2016-08-30T06:24:07.156Z,1015.63
2016-08-30T06:25:07.130Z,1015.61
2016-08-30T06:26:07.107Z,1015.65
2016-08-30T06:27:07.093Z,1015.63
2016-08-30T06:28:07.062Z,1015.67
2016-08-30T06:29:07.041Z,1015.69
2016-08-30T06:30:07.019Z,1015.7
2016-08-30T06:31:06.998Z,1015.72
2016-08-30T06:32:06.974Z,1015.71
2016-08-30T06:33:06.953Z,1015.7
2016-08-30T06:34:06.932Z,1015.68
2016-08-30T06:35:06.910Z,1015.66
2016-08-30T06:36:06.888Z,1015.66
2016-08-30T06:37:06.872Z,1015.68
2016-08-30T06:38:06.847Z,1015.7
2016-08-30T06:39:06.825Z,1015.72
2016-08-30T06:40:06.805Z,1015.65
2016-08-30T06:41:06.785Z,1015.71
2016-08-30T06:42:06.764Z,1015.72
2016-08-30T06:43:06.742Z,1015.71
2016-08-30T06:44:06.723Z,1015.72
2016-08-30T06:45:06.700Z,1015.75
2016-08-30T06:46:06.680Z,1015.77
2016-08-30T06:47:06.657Z,1015.77
2016-08-30T06:48:06.638Z,1015.8
2016-08-30T06:49:06.615Z,1015.76
2016-08-30T06:50:06.595Z,1015.78
2016-08-30T06:51:06.574Z,1015.76
2016-08-30T06:52:06.553Z,1015.76
2016-08-30T06:53:06.533Z,1015.79
2016-08-30T06:54:06.511Z,1015.8
2016-08-30T06:55:06.811Z,1015.81
2016-08-30T06:56:06.470Z,1015.8
2016-08-30T06:57:06.452Z,1015.84
2016-08-30T06:58:06.427Z,1015.79
2016-08-30T06:59:06.407Z,1015.78
2016-08-30T07:00:06.386Z,1015.78
2016-08-30T07:01:06.364Z,1015.74
2016-08-30T07:02:06.343Z,1015.74
2016-08-30T07:03:06.322Z,1015.76
2016-08-30T07:04:06.301Z,1015.77
2016-08-30T07:05:06.279Z,1015.74
2016-08-30T07:06:06.259Z,1015.75
2016-08-30T07:07:06.239Z,1015.73
2016-08-30T07:08:06.218Z,1015.75
2016-08-30T07:09:06.196Z,1015.77
2016-08-30T07:10:06.176Z,1015.79
2016-08-30T07:11:06.156Z,1015.79
2016-08-30T07:12:06.135Z,1015.82
2016-08-30T07:13:06.115Z,1015.83
2016-08-30T07:14:06.096Z,1015.81
2016-08-30T07:15:06.076Z,1015.85
2016-08-30T07:16:06.056Z,1015.85
2016-08-30T07:17:06.038Z,1015.84
2016-08-30T07:18:06.018Z,1015.84
2016-08-30T07:19:06.000Z,1015.84
2016-08-30T07:20:12.986Z,1015.81
2016-08-30T07:21:06.516Z,1015.83
2016-08-30T07:22:05.961Z,1015.86
2016-08-30T07:23:05.930Z,1015.87
2016-08-30T07:24:06.035Z,1015.86
2016-08-30T07:25:07.775Z,1015.95
2016-08-30T07:26:06.283Z,1015.92
2016-08-30T07:27:05.857Z,1015.9
2016-08-30T07:28:05.841Z,1015.94
2016-08-30T07:29:05.823Z,1015.92
2016-08-30T07:30:05.807Z,1015.87
2016-08-30T07:31:05.789Z,1015.86
2016-08-30T07:32:05.788Z,1015.88
2016-08-30T07:33:05.755Z,1015.88
2016-08-30T07:34:05.738Z,1015.9
2016-08-30T07:35:05.722Z,1015.88
2016-08-30T07:36:05.758Z,1015.89
2016-08-30T07:37:05.688Z,1015.89
2016-08-30T07:38:05.670Z,1015.93
2016-08-30T07:39:05.656Z,1015.94
2016-08-30T07:40:06.088Z,1015.95
2016-08-30T07:41:05.620Z,1015.98
2016-08-30T07:42:05.605Z,1015.98
2016-08-30T07:43:05.589Z,1016.02
2016-08-30T07:44:05.579Z,1016
2016-08-30T07:45:05.556Z,1016.03
2016-08-30T07:46:05.539Z,1016.03
2016-08-30T07:47:05.543Z,1016.07
2016-08-30T07:48:05.506Z,1016.1
2016-08-30T07:49:05.489Z,1016.08
2016-08-30T07:50:05.473Z,1016.09
2016-08-30T07:51:05.456Z,1016.06
2016-08-30T07:52:05.438Z,1016.09
2016-08-30T07:53:05.422Z,1016.11
2016-08-30T07:54:05.410Z,1016.14
2016-08-30T07:55:05.390Z,1016.13
2016-08-30T07:56:05.373Z,1016.17
2016-08-30T07:57:05.352Z,1016.17
2016-08-30T07:58:05.334Z,1016.19
2016-08-30T07:59:05.317Z,1016.19
2016-08-30T08:00:05.299Z,1016.19
2016-08-30T08:01:05.286Z,1016.21
2016-08-30T08:02:05.263Z,1016.24
2016-08-30T08:03:05.244Z,1016.26
2016-08-30T08:04:05.226Z,1016.24
2016-08-30T08:05:05.209Z,1016.23
2016-08-30T08:06:05.190Z,1016.24
2016-08-30T08:07:05.173Z,1016.27
2016-08-30T08:08:05.153Z,1016.28
2016-08-30T08:09:05.135Z,1016.29
2016-08-30T08:10:05.117Z,1016.3
2016-08-30T08:11:05.098Z,1016.28
2016-08-30T08:12:05.079Z,1016.3
2016-08-30T08:13:05.062Z,1016.3
2016-08-30T08:14:05.043Z,1016.33
2016-08-30T08:15:05.025Z,1016.29
2016-08-30T08:16:05.006Z,1016.35
2016-08-30T08:17:04.988Z,1016.34
2016-08-30T08:18:04.968Z,1016.34
2016-08-30T08:19:04.951Z,1016.33
2016-08-30T08:20:04.933Z,1016.36
2016-08-30T08:21:04.913Z,1016.35
2016-08-30T08:22:04.894Z,1016.37
2016-08-30T08:23:04.876Z,1016.38
2016-08-30T08:24:04.879Z,1016.38
2016-08-30T08:25:04.846Z,1016.39
2016-08-30T08:26:04.821Z,1016.38
2016-08-30T08:27:04.802Z,1016.37
2016-08-30T08:28:04.783Z,1016.41
2016-08-30T08:29:04.764Z,1016.35
2016-08-30T08:30:04.746Z,1016.37
2016-08-30T08:31:04.729Z,1016.38
2016-08-30T08:32:04.709Z,1016.41
2016-08-30T08:33:04.690Z,1016.39
2016-08-30T08:34:04.672Z,1016.42
2016-08-30T08:35:04.653Z,1016.41
2016-08-30T08:36:04.634Z,1016.43
2016-08-30T08:37:04.615Z,1016.46
2016-08-30T08:38:04.597Z,1016.44
2016-08-30T08:39:04.580Z,1016.46
2016-08-30T08:40:05.251Z,1016.48
2016-08-30T08:42:18.532Z,1016.49
2016-08-30T08:43:18.363Z,1016.49
2016-08-30T08:44:18.730Z,1016.52
2016-08-30T08:45:19.087Z,1016.48
2016-08-30T08:46:18.310Z,1016.51
2016-08-30T08:47:18.318Z,1016.5
2016-08-30T08:48:18.270Z,1016.51
2016-08-30T08:49:18.252Z,1016.53
2016-08-30T08:50:18.235Z,1016.55
2016-08-30T08:51:18.216Z,1016.55
2016-08-30T08:52:18.199Z,1016.56
2016-08-30T08:53:18.184Z,1016.57
2016-08-30T08:54:18.165Z,1016.55
2016-08-30T08:55:20.007Z,1016.55
2016-08-30T08:56:18.134Z,1016.57
2016-08-30T08:57:18.105Z,1016.6
2016-08-30T08:58:18.089Z,1016.59
2016-08-30T08:59:18.071Z,1016.58
2016-08-30T09:00:18.109Z,1016.64
2016-08-30T09:01:18.031Z,1016.67
2016-08-30T09:02:18.012Z,1016.65
2016-08-30T09:03:18.004Z,1016.6
2016-08-30T09:04:17.977Z,1016.61
2016-08-30T09:05:18.335Z,1016.6
2016-08-30T09:06:17.939Z,1016.61
2016-08-30T09:07:17.920Z,1016.62
2016-08-30T09:08:17.902Z,1016.58
2016-08-30T09:09:17.884Z,1016.63
2016-08-30T09:10:18.257Z,1016.62
2016-08-30T09:11:17.847Z,1016.66
2016-08-30T09:12:17.830Z,1016.61
2016-08-30T09:13:17.811Z,1016.63
2016-08-30T09:14:17.793Z,1016.6
2016-08-30T09:15:17.775Z,1016.63
2016-08-30T09:16:17.757Z,1016.62
2016-08-30T09:17:17.738Z,1016.59
2016-08-30T09:18:17.720Z,1016.63
2016-08-30T09:19:17.702Z,1016.56
2016-08-30T09:20:17.684Z,1016.64
2016-08-30T09:21:17.665Z,1016.64
2016-08-30T09:22:17.648Z,1016.59
2016-08-30T09:23:17.837Z,1016.63
2016-08-30T09:24:17.611Z,1016.58
2016-08-30T09:25:17.593Z,1016.6
2016-08-30T09:26:17.575Z,1016.58
2016-08-30T09:27:17.557Z,1016.63
2016-08-30T09:28:17.538Z,1016.56
2016-08-30T09:29:17.521Z,1016.61
2016-08-30T09:30:17.540Z,1016.58
2016-08-30T09:31:17.485Z,1016.6
2016-08-30T09:32:17.467Z,1016.62
2016-08-30T09:33:17.450Z,1016.61
2016-08-30T09:34:17.432Z,1016.62
2016-08-30T09:35:17.415Z,1016.61
2016-08-30T09:36:17.394Z,1016.55
2016-08-30T09:37:17.377Z,1016.58
2016-08-30T09:38:17.360Z,1016.62
2016-08-30T09:39:17.341Z,1016.59
2016-08-30T09:40:17.323Z,1016.57
2016-08-30T09:41:17.306Z,1016.59
2016-08-30T09:42:17.287Z,1016.62
2016-08-30T09:43:17.302Z,1016.59
2016-08-30T09:44:17.256Z,1016.55
2016-08-30T09:45:17.234Z,1016.55
2016-08-30T09:46:17.215Z,1016.58
2016-08-30T09:47:17.198Z,1016.55
2016-08-30T09:48:17.180Z,1016.53
2016-08-30T09:49:17.163Z,1016.55
2016-08-30T09:50:17.145Z,1016.52
2016-08-30T09:51:17.127Z,1016.55
2016-08-30T09:52:17.112Z,1016.53
2016-08-30T09:53:17.091Z,1016.55
2016-08-30T09:54:17.074Z,1016.48
2016-08-30T09:55:17.057Z,1016.46
2016-08-30T09:56:17.040Z,1016.46
2016-08-30T09:57:17.021Z,1016.42
2016-08-30T09:58:17.004Z,1016.37
2016-08-30T09:59:16.987Z,1016.37
2016-08-30T10:00:16.969Z,1016.38
2016-08-30T10:01:16.952Z,1016.34
2016-08-30T10:02:16.934Z,1016.36
2016-08-30T10:03:16.917Z,1016.33
2016-08-30T10:04:16.902Z,1016.32
2016-08-30T10:05:16.885Z,1016.32
2016-08-30T10:06:16.865Z,1016.33
2016-08-30T10:07:16.848Z,1016.32
2016-08-30T10:08:16.830Z,1016.33
2016-08-30T10:09:16.813Z,1016.29
2016-08-30T10:10:16.795Z,1016.28
2016-08-30T10:11:16.779Z,1016.26
2016-08-30T10:12:16.761Z,1016.22
2016-08-30T10:13:16.744Z,1016.24
2016-08-30T10:14:16.727Z,1016.19
2016-08-30T10:15:16.709Z,1016.17
2016-08-30T10:16:16.692Z,1016.16
2016-08-30T10:17:16.676Z,1016.14
2016-08-30T10:18:16.660Z,1016.18
2016-08-30T10:19:16.641Z,1016.16
2016-08-30T10:20:16.624Z,1016.2
2016-08-30T10:21:16.607Z,1016.14
2016-08-30T10:22:16.590Z,1016.15
2016-08-30T10:23:16.572Z,1016.18
2016-08-30T10:24:16.556Z,1016.16
2016-08-30T10:25:16.539Z,1016.15
2016-08-30T10:26:16.521Z,1016.14
2016-08-30T10:27:16.504Z,1016.17
2016-08-30T10:28:16.486Z,1016.13
2016-08-30T10:29:16.470Z,1016.15
2016-08-30T10:30:16.452Z,1016.14
2016-08-30T10:31:16.436Z,1016.09
2016-08-30T10:32:16.419Z,1016.07
2016-08-30T10:33:16.402Z,1016.05
2016-08-30T10:34:16.385Z,1016.03
2016-08-30T10:35:16.368Z,1016.09
2016-08-30T10:36:16.351Z,1016.09
2016-08-30T10:37:16.333Z,1016.08
2016-08-30T10:38:16.317Z,1016.07
2016-08-30T10:39:16.300Z,1016.04
2016-08-30T10:40:16.283Z,1016.06
2016-08-30T10:41:16.266Z,1016.06
2016-08-30T10:42:16.250Z,1016.05
2016-08-30T10:43:16.233Z,1016.02
2016-08-30T10:44:16.216Z,1016.08
2016-08-30T10:45:16.199Z,1016.01
2016-08-30T10:46:16.182Z,1016.05
2016-08-30T10:47:16.166Z,1016.09
2016-08-30T10:48:16.149Z,1016.06
2016-08-30T10:49:16.132Z,1016.02
2016-08-30T10:50:16.116Z,1016
2016-08-30T10:51:16.100Z,1016.01
2016-08-30T10:52:16.083Z,1015.98
2016-08-30T10:53:16.066Z,1016.01
2016-08-30T10:54:16.053Z,1015.99
2016-08-30T10:55:16.170Z,1016.01
2016-08-30T10:56:16.017Z,1015.98
2016-08-30T10:57:15.999Z,1015.98
2016-08-30T10:58:15.984Z,1015.97
2016-08-30T10:59:15.966Z,1015.98
2016-08-30T11:00:15.950Z,1015.96
2016-08-30T11:01:15.934Z,1015.99
2016-08-30T11:02:15.918Z,1016.02
2016-08-30T11:03:15.914Z,1015.98
2016-08-30T11:04:15.890Z,1016.02
2016-08-30T11:05:15.868Z,1016
2016-08-30T11:06:16.202Z,1016.01
2016-08-30T11:07:15.835Z,1015.96
2016-08-30T11:08:15.819Z,1015.98
2016-08-30T11:09:15.803Z,1015.93
2016-08-30T11:10:15.786Z,1015.89
2016-08-30T11:11:15.770Z,1015.88
2016-08-30T11:12:15.754Z,1015.88
2016-08-30T11:13:15.737Z,1015.85
2016-08-30T11:14:15.721Z,1015.85
2016-08-30T11:15:15.705Z,1015.88
2016-08-30T11:16:15.689Z,1015.86
2016-08-30T11:17:15.673Z,1015.81
2016-08-30T11:18:15.657Z,1015.86
2016-08-30T11:19:15.639Z,1015.81
2016-08-30T11:20:15.623Z,1015.8
2016-08-30T11:21:15.605Z,1015.8
2016-08-30T11:22:15.590Z,1015.73
2016-08-30T11:23:15.573Z,1015.77
2016-08-30T11:24:15.559Z,1015.74
2016-08-30T11:25:15.543Z,1015.75
2016-08-30T11:26:15.524Z,1015.77
2016-08-30T11:27:15.510Z,1015.76
2016-08-30T11:28:15.492Z,1015.74
2016-08-30T11:29:15.481Z,1015.71
2016-08-30T11:30:15.460Z,1015.66
2016-08-30T11:31:15.444Z,1015.67
2016-08-30T11:32:15.428Z,1015.72
2016-08-30T11:33:15.417Z,1015.69
2016-08-30T11:34:15.396Z,1015.68
2016-08-30T11:35:15.380Z,1015.67
2016-08-30T11:36:15.363Z,1015.68
2016-08-30T11:37:15.347Z,1015.64
2016-08-30T11:38:15.332Z,1015.61
2016-08-30T11:39:15.314Z,1015.63
2016-08-30T11:40:15.299Z,1015.62
2016-08-30T11:41:15.282Z,1015.6
2016-08-30T11:42:15.266Z,1015.63
2016-08-30T11:43:15.250Z,1015.61
2016-08-30T11:44:15.234Z,1015.61
2016-08-30T11:45:15.218Z,1015.6
2016-08-30T11:46:15.202Z,1015.56
2016-08-30T11:47:15.185Z,1015.59
2016-08-30T11:48:15.169Z,1015.58
2016-08-30T11:49:15.155Z,1015.58
2016-08-30T11:50:15.137Z,1015.58
2016-08-30T11:51:15.121Z,1015.58
2016-08-30T11:52:15.106Z,1015.56
2016-08-30T11:53:15.090Z,1015.59
2016-08-30T11:54:15.073Z,1015.6
2016-08-30T11:55:15.057Z,1015.55
2016-08-30T11:56:15.042Z,1015.58
2016-08-30T11:57:15.026Z,1015.51
2016-08-30T11:58:15.009Z,1015.5
2016-08-30T11:59:14.993Z,1015.49
2016-08-30T12:00:14.978Z,1015.46
2016-08-30T12:01:14.961Z,1015.43
2016-08-30T12:02:14.946Z,1015.41
2016-08-30T12:03:14.930Z,1015.42
2016-08-30T12:04:14.915Z,1015.43
2016-08-30T12:05:15.179Z,1015.42
2016-08-30T12:06:14.882Z,1015.4
2016-08-30T12:07:14.867Z,1015.44
2016-08-30T12:08:14.851Z,1015.41
2016-08-30T12:09:14.835Z,1015.36
2016-08-30T12:10:14.821Z,1015.38
2016-08-30T12:11:14.804Z,1015.34
2016-08-30T12:12:14.788Z,1015.35
2016-08-30T12:13:14.772Z,1015.35